EGMONT CHANNEL ENTRANCE, FL - 214

GPS Positions

GPS Time
Latitude
Degrees
Longitude
Degrees
Gap
 
Distance
NM
Speed
Knots
Direction
Degrees
2018 Jun 06, 23:51 27.58986° -82.93120° 30 min 0.03 0.01
257°
2018 Jun 06, 23:21 27.58987° -82.93115° 30 min 0.03 0.00
230°
2018 Jun 06, 22:51 27.58988° -82.93114° 30 min 0.03 0.00
2018 Jun 06, 22:21 27.58988° -82.93114° 30 min 0.03 0.01
243°
2018 Jun 06, 21:51 27.58990° -82.93109° 30 min 0.03 0.00
2018 Jun 06, 21:21 27.58989° -82.93109° 30 min 0.03 0.00
214°
2018 Jun 06, 20:51 27.58992° -82.93107° 30 min 0.03 0.00
34°
2018 Jun 06, 20:21 27.58989° -82.93109° 30 min 0.03 0.00
90°
2018 Jun 06, 19:51 27.58989° -82.93111° 30 min 0.03 0.00
270°
2018 Jun 06, 19:21 27.58989° -82.93109° 30 min 0.03 0.00
2018 Jun 06, 18:51 27.58989° -82.93109° 30 min 0.03 0.00
245°
2018 Jun 06, 18:21 27.58990° -82.93107° 30 min 0.03 0.01
44°
2018 Jun 06, 17:51 27.58986° -82.93111° 30 min 0.03 0.01
78°
2018 Jun 06, 17:21 27.58985° -82.93118° 30 min 0.03 0.00
270°
2018 Jun 06, 16:51 27.58985° -82.93115° 30 min 0.03 0.00
238°
2018 Jun 06, 16:21 27.58987° -82.93111° 30 min 0.03 0.01
223°
2018 Jun 06, 15:51 27.58991° -82.93107° 30 min 0.03 0.00
2018 Jun 06, 15:21 27.58991° -82.93107° 30 min 0.03 0.00
180°
2018 Jun 06, 14:51 27.58992° -82.93107° 30 min 0.03 0.01
63°
2018 Jun 06, 14:21 27.58990° -82.93111° 30 min 0.03 0.00
65°
2018 Jun 06, 13:51 27.58989° -82.93114° 30 min 0.03 0.01
237°
2018 Jun 06, 13:21 27.58994° -82.93105° 30 min 0.03 0.01
43°
2018 Jun 06, 12:51 27.58990° -82.93109° 30 min 0.03 0.00
224°
2018 Jun 06, 12:21 27.58992° -82.93107° 30 min 0.03 0.00
2018 Jun 06, 11:51 27.58992° -82.93107° 30 min 0.03 0.00
212°
2018 Jun 06, 11:21 27.58995° -82.93105° 30 min 0.02 0.00
251°
2018 Jun 06, 10:51 27.58996° -82.93101° 30 min 0.03 0.00
180°
2018 Jun 06, 10:21 27.58998° -82.93101° 30 min 0.02 0.01
243°
2018 Jun 06, 09:51 27.59001° -82.93096° 30 min 0.03 0.00
180°
2018 Jun 06, 09:21 27.59002° -82.93096° 30 min 0.02 0.00
90°
2018 Jun 06, 08:51 27.59002° -82.93098° 30 min 0.02 0.00
224°
2018 Jun 06, 08:21 27.59004° -82.93096° 30 min 0.02 0.00
90°
2018 Jun 06, 07:51 27.59004° -82.93098° 30 min 0.02 0.01
205°
2018 Jun 06, 07:21 27.59008° -82.93096° 30 min 0.02 0.00
2018 Jun 06, 06:51 27.59007° -82.93096° 30 min 0.02 0.00
2018 Jun 06, 06:21 27.59007° -82.93096° 30 min 0.02 0.00
270°
2018 Jun 06, 05:51 27.59007° -82.93094° 30 min 0.02 0.01
129°
2018 Jun 06, 05:21 27.59010° -82.93098° 30 min 0.02 0.01
25°
2018 Jun 06, 04:51 27.59002° -82.93103° 30 min 0.02 0.02
52°
2018 Jun 06, 04:21 27.58990° -82.93120° 30 min 0.02 0.01
77°
2018 Jun 06, 03:51 27.58989° -82.93124° 30 min 0.02 0.00
71°
2018 Jun 06, 03:21 27.58988° -82.93128° 30 min 0.03 0.00
2018 Jun 06, 02:51 27.58988° -82.93128° 30 min 0.03 0.00
2018 Jun 06, 02:21 27.58987° -82.93128° 30 min 0.03 0.00
305°
2018 Jun 06, 01:51 27.58986° -82.93127° 30 min 0.03 0.00
2018 Jun 06, 01:21 27.58986° -82.93127° 30 min 0.03 0.00
2018 Jun 06, 00:51 27.58985° -82.93127° 30 min 0.03 0.01
286°
2018 Jun 06, 00:21 27.58983° -82.93122° 30 min 0.03 0.00
2018 Jun 05, 23:51 27.58983° -82.93122° 30 min 0.03 0.00
222°
2018 Jun 05, 23:21 27.58986° -82.93120° 30 min 0.03 0.00
2018 Jun 05, 22:51 27.58986° -82.93120° 30 min 0.03 0.01
257°
2018 Jun 05, 22:21 27.58987° -82.93115° 30 min 0.03 0.00
251°
2018 Jun 05, 21:51 27.58988° -82.93111° 30 min 0.03 0.00
299°
2018 Jun 05, 21:21 27.58987° -82.93109° 30 min 0.03 0.00
222°
2018 Jun 05, 20:51 27.58989° -82.93107° 30 min 0.03 0.00
180°
2018 Jun 05, 20:21 27.58990° -82.93107° 30 min 0.03 0.00
241°
2018 Jun 05, 19:51 27.58991° -82.93105° 30 min 0.03 0.00
2018 Jun 05, 19:21 27.58990° -82.93105° 30 min 0.03 0.00
180°
2018 Jun 05, 18:51 27.58993° -82.93105° 30 min 0.03 0.00
90°
2018 Jun 05, 18:21 27.58993° -82.93107° 30 min 0.03 0.00
2018 Jun 05, 17:51 27.58992° -82.93107° 30 min 0.03 0.00
241°
2018 Jun 05, 17:21 27.58993° -82.93105° 30 min 0.03 0.00
2018 Jun 05, 16:51 27.58993° -82.93105° 30 min 0.03 0.00
44°
2018 Jun 05, 16:21 27.58991° -82.93107° 30 min 0.03 0.00
2018 Jun 05, 15:51 27.58991° -82.93107° 30 min 0.03 0.00
2018 Jun 05, 15:21 27.58990° -82.93107° 30 min 0.03 0.00
44°
2018 Jun 05, 14:51 27.58988° -82.93109° 30 min 0.03 0.01
90°
2018 Jun 05, 14:21 27.58988° -82.93115° 30 min 0.03 0.00
310°
2018 Jun 05, 13:51 27.58987° -82.93114° 30 min 0.03 0.00
180°
2018 Jun 05, 13:21 27.58988° -82.93114° 30 min 0.03 0.00
270°
2018 Jun 05, 12:51 27.58988° -82.93111° 30 min 0.03 0.00
299°
2018 Jun 05, 12:21 27.58987° -82.93109° 30 min 0.03 0.00
2018 Jun 05, 11:51 27.58987° -82.93109° 30 min 0.03 0.00
241°
2018 Jun 05, 11:21 27.58988° -82.93107° 30 min 0.03 0.00
180°
2018 Jun 05, 10:51 27.58989° -82.93107° 30 min 0.03 0.00
224°
2018 Jun 05, 10:21 27.58991° -82.93105° 30 min 0.03 0.00
213°
2018 Jun 05, 09:51 27.58993° -82.93103° 30 min 0.03 0.00
224°
2018 Jun 05, 09:21 27.58995° -82.93101° 30 min 0.03 0.00
2018 Jun 05, 08:51 27.58995° -82.93101° 30 min 0.03 0.01
205°
2018 Jun 05, 08:21 27.59000° -82.93098° 30 min 0.02 0.00
180°
2018 Jun 05, 07:51 27.59001° -82.93098° 30 min 0.02 0.00
180°
2018 Jun 05, 07:21 27.59002° -82.93098° 30 min 0.02 0.01
197°
2018 Jun 05, 06:51 27.59008° -82.93096° 30 min 0.02 0.00
316°
2018 Jun 05, 06:21 27.59006° -82.93094° 30 min 0.02 0.01
2018 Jun 05, 05:51 27.59000° -82.93094° 30 min 0.03 0.00
148°
2018 Jun 05, 05:21 27.59003° -82.93096° 30 min 0.02 0.00
2018 Jun 05, 04:51 27.59003° -82.93096° 30 min 0.02 0.00
180°
2018 Jun 05, 04:21 27.59004° -82.93096° 30 min 0.02 0.01
32°
2018 Jun 05, 03:51 27.58997° -82.93101° 30 min 0.02 0.01
52°
2018 Jun 05, 03:21 27.58993° -82.93107° 30 min 0.03 0.01
51°
2018 Jun 05, 02:51 27.58990° -82.93111° 30 min 0.03 0.00
74°
2018 Jun 05, 02:21 27.58989° -82.93115° 30 min 0.03 0.00
2018 Jun 05, 01:51 27.58989° -82.93115° 30 min 0.03 0.01
79°
2018 Jun 05, 01:21 27.58988° -82.93122° 30 min 0.03 0.01
78°
2018 Jun 05, 00:51 27.58987° -82.93128° 30 min 0.03 0.00
337°
2018 Jun 05, 00:21 27.58983° -82.93127° 30 min 0.03 0.01
254°
2018 Jun 04, 23:51 27.58985° -82.93122° 30 min 0.03 0.00
2018 Jun 04, 23:21 27.58985° -82.93122° 30 min 0.03 0.00
241°
2018 Jun 04, 22:51 27.58986° -82.93120° 30 min 0.03 0.01
249°
2018 Jun 04, 22:21 27.58988° -82.93114° 30 min 0.03 0.00
180°
2018 Jun 04, 21:51 27.58989° -82.93114° 30 min 0.03 0.00
270°
2018 Jun 04, 21:21 27.58989° -82.93109° 30 min 0.03 0.00
214°
2018 Jun 04, 20:51 27.58992° -82.93107° 30 min 0.03 0.00
270°
2018 Jun 04, 20:21 27.58992° -82.93105° 30 min 0.03 0.00
90°
2018 Jun 04, 19:51 27.58992° -82.93107° 30 min 0.03 0.01
226°
2018 Jun 04, 19:21 27.58995° -82.93103° 30 min 0.03 0.00
241°
2018 Jun 04, 18:51 27.58996° -82.93101° 30 min 0.03 0.00
224°
2018 Jun 04, 18:21 27.58998° -82.93098° 30 min 0.03 0.00
299°
2018 Jun 04, 17:51 27.58997° -82.93096° 30 min 0.03 0.00
180°
2018 Jun 04, 17:21 27.58998° -82.93096° 30 min 0.03 0.00
44°
2018 Jun 04, 16:51 27.58996° -82.93098° 30 min 0.03 0.00
61°
2018 Jun 04, 16:21 27.58995° -82.93101° 30 min 0.03 0.00
58°
2018 Jun 04, 15:51 27.58993° -82.93105° 30 min 0.03 0.00
44°
2018 Jun 04, 15:21 27.58991° -82.93107° 30 min 0.03 0.00
180°
2018 Jun 04, 14:51 27.58992° -82.93107° 30 min 0.03 0.01
53°
2018 Jun 04, 14:21 27.58989° -82.93111° 30 min 0.03 0.00
90°
2018 Jun 04, 13:51 27.58989° -82.93114° 30 min 0.03 0.01
257°
2018 Jun 04, 13:21 27.58990° -82.93109° 30 min 0.03 0.00
65°
2018 Jun 04, 12:51 27.58989° -82.93111° 30 min 0.03 0.00
2018 Jun 04, 12:21 27.58988° -82.93111° 30 min 0.03 0.00
2018 Jun 04, 11:51 27.58988° -82.93111° 30 min 0.03 0.00
2018 Jun 04, 11:21 27.58988° -82.93111° 30 min 0.03 0.00
241°
2018 Jun 04, 10:51 27.58989° -82.93109° 30 min 0.03 0.00
270°
2018 Jun 04, 10:21 27.58989° -82.93107° 30 min 0.03 0.00
180°
2018 Jun 04, 09:51 27.58990° -82.93107° 30 min 0.03 0.00
90°
2018 Jun 04, 09:21 27.58990° -82.93109° 30 min 0.03 0.00
241°
2018 Jun 04, 08:51 27.58991° -82.93107° 30 min 0.03 0.00
270°
2018 Jun 04, 08:21 27.58991° -82.93105° 30 min 0.03 0.01
198°
2018 Jun 04, 07:51 27.58995° -82.93103° 30 min 0.03 0.00
241°
2018 Jun 04, 07:21 27.58996° -82.93101° 30 min 0.03 0.00
180°
2018 Jun 04, 06:51 27.58998° -82.93101° 30 min 0.02 0.01
223°
2018 Jun 04, 06:21 27.59003° -82.93096° 30 min 0.02 0.00
270°
2018 Jun 04, 05:51 27.59003° -82.93094° 30 min 0.03 0.01
180°
2018 Jun 04, 05:21 27.59009° -82.93094° 30 min 0.02 0.00
2018 Jun 04, 04:51 27.59009° -82.93094° 30 min 0.02 0.00
180°
2018 Jun 04, 04:21 27.59010° -82.93094° 30 min 0.02 0.01
15°
2018 Jun 04, 03:51 27.59003° -82.93096° 30 min 0.02 0.01
69°
2018 Jun 04, 03:21 27.59001° -82.93103° 30 min 0.02 0.01
2018 Jun 04, 02:51 27.58995° -82.93103° 30 min 0.03 0.01
46°
2018 Jun 04, 02:21 27.58992° -82.93107° 30 min 0.03 0.01
81°
2018 Jun 04, 01:51 27.58991° -82.93114° 30 min 0.02 0.01
59°
2018 Jun 04, 01:21 27.58988° -82.93120° 30 min 0.03 0.01
90°
2018 Jun 04, 00:51 27.58988° -82.93133° 30 min 0.03 0.01
282°
2018 Jun 04, 00:21 27.58987° -82.93127° 30 min 0.03 0.01
74°
2018 Jun 03, 23:51 27.58985° -82.93135° 30 min 0.03 0.00
180°
2018 Jun 03, 23:21 27.58987° -82.93135° 30 min 0.03 0.01
286°
2018 Jun 03, 22:51 27.58985° -82.93127° 30 min 0.03 0.01
242°
2018 Jun 03, 22:21 27.58988° -82.93120° 30 min 0.03 0.00
61°
2018 Jun 03, 21:51 27.58987° -82.93122° 30 min 0.03 0.01
254°
2018 Jun 03, 21:21 27.58988° -82.93118° 30 min 0.03 0.00
238°
2018 Jun 03, 20:51 27.58990° -82.93114° 30 min 0.03 0.01
254°
2018 Jun 03, 20:21 27.58991° -82.93109° 30 min 0.03 0.00
299°
2018 Jun 03, 19:51 27.58990° -82.93107° 30 min 0.03 0.00
180°
2018 Jun 03, 19:21 27.58993° -82.93107° 30 min 0.03 0.00
180°
2018 Jun 03, 18:51 27.58995° -82.93107° 30 min 0.02 0.01
246°
2018 Jun 03, 18:21 27.58998° -82.93098° 30 min 0.03 0.00
180°
2018 Jun 03, 17:51 27.59001° -82.93098° 30 min 0.02 0.00
180°
2018 Jun 03, 17:21 27.59002° -82.93098° 30 min 0.02 0.00
241°
2018 Jun 03, 16:51 27.59003° -82.93096° 30 min 0.02 0.00
61°
2018 Jun 03, 16:21 27.59002° -82.93098° 30 min 0.02 0.00
241°
2018 Jun 03, 15:51 27.59003° -82.93096° 30 min 0.02 0.00
2018 Jun 03, 15:21 27.59001° -82.93096° 30 min 0.03 0.01
63°
2018 Jun 03, 14:51 27.58998° -82.93101° 30 min 0.02 0.01
46°
2018 Jun 03, 14:21 27.58995° -82.93105° 30 min 0.02 0.00
2018 Jun 03, 13:51 27.58995° -82.93105° 30 min 0.02 0.00
44°
2018 Jun 03, 13:21 27.58993° -82.93107° 30 min 0.03 0.00
44°
2018 Jun 03, 12:51 27.58991° -82.93109° 30 min 0.03 0.00
115°
2018 Jun 03, 12:21 27.58992° -82.93111° 30 min 0.02 0.00
270°
2018 Jun 03, 11:51 27.58992° -82.93107° 30 min 0.03 0.00
44°
2018 Jun 03, 11:21 27.58990° -82.93109° 30 min 0.03 0.00
90°
2018 Jun 03, 10:51 27.58990° -82.93111° 30 min 0.03 0.00
241°
2018 Jun 03, 10:21 27.58991° -82.93109° 30 min 0.03 0.01
257°
2018 Jun 03, 09:51 27.58992° -82.93105° 30 min 0.03 0.01
226°
2018 Jun 03, 09:21 27.58995° -82.93101° 30 min 0.03 0.01
195°
2018 Jun 03, 08:51 27.59003° -82.93098° 30 min 0.02 0.00
180°
2018 Jun 03, 08:21 27.59004° -82.93098° 30 min 0.02 0.00
90°
2018 Jun 03, 07:51 27.59004° -82.93101° 30 min 0.02 0.00
2018 Jun 03, 07:21 27.59002° -82.93101° 30 min 0.02 0.00
212°
2018 Jun 03, 06:51 27.59005° -82.93098° 30 min 0.02 0.01
180°
2018 Jun 03, 06:21 27.59009° -82.93098° 30 min 0.02 0.01
254°
2018 Jun 03, 05:51 27.59010° -82.93094° 30 min 0.02 0.02
143°
2018 Jun 03, 05:21 27.59021° -82.93103° 30 min 0.02 0.00
2018 Jun 03, 04:51 27.59019° -82.93103° 30 min 0.02 0.01
111°
2018 Jun 03, 04:21 27.59021° -82.93109° 30 min 0.01 0.03
24°
2018 Jun 03, 03:51 27.59000° -82.93120° 30 min 0.02 0.02
78°
2018 Jun 03, 03:21 27.58996° -82.93137° 30 min 0.02 0.01
97°
2018 Jun 03, 02:51 27.58997° -82.93146° 30 min 0.02 0.01
331°
2018 Jun 03, 02:21 27.58990° -82.93141° 30 min 0.02 0.00
295°
2018 Jun 03, 01:51 27.58989° -82.93139° 30 min 0.03 0.01
314°
2018 Jun 03, 01:21 27.58986° -82.93135° 30 min 0.03 0.00
122°
2018 Jun 03, 00:51 27.58988° -82.93139° 30 min 0.03 0.01
106°
2018 Jun 03, 00:21 27.58989° -82.93143° 30 min 0.03 0.00
299°
2018 Jun 02, 23:51 27.58988° -82.93141° 30 min 0.03 0.00
2018 Jun 02, 23:21 27.58988° -82.93141° 30 min 0.03 0.00
328°
2018 Jun 02, 22:51 27.58985° -82.93139° 30 min 0.03 0.00
213°
2018 Jun 02, 22:21 27.58987° -82.93137° 30 min 0.03 0.00
295°
2018 Jun 02, 21:51 27.58986° -82.93135° 30 min 0.03 0.01
286°
2018 Jun 02, 21:21 27.58985° -82.93130° 30 min 0.03 0.00
180°
2018 Jun 02, 20:51 27.58987° -82.93130° 30 min 0.03 0.00
295°
2018 Jun 02, 20:21 27.58986° -82.93128° 30 min 0.03 0.01
270°
2018 Jun 02, 19:51 27.58986° -82.93122° 30 min 0.03 0.00
180°
2018 Jun 02, 19:21 27.58988° -82.93122° 30 min 0.03 0.00
270°
2018 Jun 02, 18:51 27.58988° -82.93120° 30 min 0.03 0.01
261°
2018 Jun 02, 18:21 27.58989° -82.93111° 30 min 0.03 0.00
90°
2018 Jun 02, 17:51 27.58989° -82.93114° 30 min 0.03 0.00
224°
2018 Jun 02, 17:21 27.58991° -82.93111° 30 min 0.03 0.00
224°
2018 Jun 02, 16:51 27.58993° -82.93109° 30 min 0.02 0.01
231°
2018 Jun 02, 16:21 27.58996° -82.93105° 30 min 0.02 0.00
235°
2018 Jun 02, 15:51 27.58997° -82.93103° 30 min 0.02 0.01
61°
2018 Jun 02, 15:21 27.58994° -82.93109° 30 min 0.02 0.00
270°
2018 Jun 02, 14:51 27.58994° -82.93107° 30 min 0.02 0.00
2018 Jun 02, 14:21 27.58994° -82.93107° 30 min 0.02 0.00
224°
2018 Jun 02, 13:51 27.58996° -82.93105° 30 min 0.02 0.01
51°
2018 Jun 02, 13:21 27.58993° -82.93109° 30 min 0.02 0.00
61°
2018 Jun 02, 12:51 27.58992° -82.93111° 30 min 0.02 0.00
58°
2018 Jun 02, 12:21 27.58990° -82.93115° 30 min 0.03 0.00
2018 Jun 02, 11:51 27.58990° -82.93115° 30 min 0.03 0.00
65°
2018 Jun 02, 11:21 27.58989° -82.93118° 30 min 0.03 0.00
245°
2018 Jun 02, 10:51 27.58990° -82.93115° 30 min 0.03 0.00
305°
2018 Jun 02, 10:21 27.58989° -82.93114° 30 min 0.03 0.00
245°
2018 Jun 02, 09:51 27.58990° -82.93111° 30 min 0.03 0.00
241°
2018 Jun 02, 09:21 27.58991° -82.93109° 30 min 0.03 0.00
136°
2018 Jun 02, 08:51 27.58993° -82.93111° 30 min 0.02 0.01
243°
2018 Jun 02, 08:21 27.58995° -82.93107° 30 min 0.02 0.00
180°
2018 Jun 02, 07:51 27.58996° -82.93107° 30 min 0.02 0.00
212°
2018 Jun 02, 07:21 27.59000° -82.93105° 30 min 0.02 0.01
208°
2018 Jun 02, 06:51 27.59006° -82.93101° 30 min 0.02 0.01
206°
2018 Jun 02, 06:21 27.59010° -82.93098° 30 min 0.02 0.01
155°
2018 Jun 02, 05:51 27.59019° -82.93103° 30 min 0.02 0.00
241°
2018 Jun 02, 05:21 27.59020° -82.93101° 30 min 0.02 0.00
136°
2018 Jun 02, 04:51 27.59022° -82.93103° 30 min 0.01 0.00
157°
2018 Jun 02, 04:21 27.59025° -82.93105° 30 min 0.01 0.00
148°
2018 Jun 02, 03:51 27.59029° -82.93107° 30 min 0.01 0.01
117°
2018 Jun 02, 03:21 27.59031° -82.93111° 30 min 0.01 0.01
102°
2018 Jun 02, 02:51 27.59033° -82.93122° 30 min 0.00 0.01
74°
2018 Jun 02, 02:21 27.59031° -82.93130° 30 min 0.00 0.01
32°
2018 Jun 02, 01:51 27.59024° -82.93135° 30 min 0.00 0.01
52°
2018 Jun 02, 01:21 27.59017° -82.93146° 30 min 0.01 0.01
37°
2018 Jun 02, 00:51 27.59011° -82.93150° 30 min 0.02 0.01
348°
2018 Jun 02, 00:21 27.59002° -82.93148° 30 min 0.02 0.01
2018 Jun 01, 23:51 27.58997° -82.93148° 30 min 0.02 0.01
334°
2018 Jun 01, 23:21 27.58993° -82.93146° 30 min 0.02 0.01
286°
2018 Jun 01, 22:51 27.58992° -82.93141° 30 min 0.02 0.00
2018 Jun 01, 22:21 27.58992° -82.93141° 30 min 0.02 0.00
326°
2018 Jun 01, 21:51 27.58989° -82.93139° 30 min 0.03 0.00
270°
2018 Jun 01, 21:21 27.58989° -82.93137° 30 min 0.02 0.01
286°
2018 Jun 01, 20:51 27.58988° -82.93133° 30 min 0.03 0.00
270°
2018 Jun 01, 20:21 27.58988° -82.93128° 30 min 0.03 0.00
2018 Jun 01, 19:51 27.58987° -82.93128° 30 min 0.03 0.00
211°
2018 Jun 01, 19:21 27.58989° -82.93127° 30 min 0.02 0.01
261°
2018 Jun 01, 18:51 27.58990° -82.93120° 30 min 0.02 0.01
231°
2018 Jun 01, 18:21 27.58993° -82.93115° 30 min 0.02 0.01
246°
2018 Jun 01, 17:51 27.58996° -82.93107° 30 min 0.02 0.01
212°
2018 Jun 01, 17:21 27.59002° -82.93103° 30 min 0.02 0.01
201°
2018 Jun 01, 16:51 27.59007° -82.93101° 30 min 0.02 0.01
180°
2018 Jun 01, 16:21 27.59011° -82.93101° 30 min 0.02 0.01
180°
2018 Jun 01, 15:51 27.59017° -82.93101° 30 min 0.02 0.00
180°
2018 Jun 01, 15:21 27.59020° -82.93101° 30 min 0.02 0.00
212°
2018 Jun 01, 14:51 27.59023° -82.93098° 30 min 0.02 0.01
90°
2018 Jun 01, 14:21 27.59023° -82.93105° 30 min 0.01 0.00
235°
2018 Jun 01, 13:51 27.59024° -82.93103° 30 min 0.01 0.00
122°
2018 Jun 01, 13:21 27.59026° -82.93107° 30 min 0.01 0.00
65°
2018 Jun 01, 12:51 27.59025° -82.93109° 30 min 0.01 0.00
90°
2018 Jun 01, 12:21 27.59025° -82.93111° 30 min 0.01 0.00
2018 Jun 01, 11:51 27.59024° -82.93111° 30 min 0.01 0.00
2018 Jun 01, 11:21 27.59024° -82.93111° 30 min 0.01 0.01
328°
2018 Jun 01, 10:51 27.59018° -82.93107° 30 min 0.01 0.00
65°
2018 Jun 01, 10:21 27.59017° -82.93109° 30 min 0.01 0.01
21°
2018 Jun 01, 09:51 27.59006° -82.93114° 30 min 0.02 0.01
90°
2018 Jun 01, 09:21 27.59006° -82.93122° 30 min 0.01 0.01
127°
2018 Jun 01, 08:51 27.59009° -82.93127° 30 min 0.01 0.01
215°
2018 Jun 01, 08:21 27.59018° -82.93120° 30 min 0.01 0.01
212°
2018 Jun 01, 07:51 27.59024° -82.93115° 30 min 0.01 0.01
126°
2018 Jun 01, 07:21 27.59029° -82.93122° 30 min 0.00 0.00
180°
2018 Jun 01, 06:51 27.59032° -82.93122° 30 min 0.00 0.00
241°
2018 Jun 01, 06:21 27.59033° -82.93120° 30 min 0.01 0.00
270°
2018 Jun 01, 05:51 27.59033° -82.93118° 30 min 0.01 0.00
180°
2018 Jun 01, 05:21 27.59035° -82.93118° 30 min 0.01 0.01
299°
2018 Jun 01, 04:51 27.59031° -82.93109° 30 min 0.01 0.00
2018 Jun 01, 04:21 27.59030° -82.93109° 30 min 0.01 0.01
121°
2018 Jun 01, 03:51 27.59033° -82.93115° 30 min 0.01 0.01
137°
2018 Jun 01, 03:21 27.59037° -82.93120° 30 min 0.01 0.00
90°
2018 Jun 01, 02:51 27.59037° -82.93122° 30 min 0.01 0.01
90°
2018 Jun 01, 02:21 27.59037° -82.93130° 30 min 0.00 0.01
51°
2018 Jun 01, 01:51 27.59034° -82.93135° 30 min 0.00 0.00
90°
2018 Jun 01, 01:21 27.59034° -82.93137° 30 min 0.00 0.01
67°
2018 Jun 01, 00:51 27.59032° -82.93143° 30 min 0.01 0.01
53°
2018 Jun 01, 00:21 27.59029° -82.93148° 30 min 0.01 0.00
32°
2018 May 31, 23:51 27.59025° -82.93150° 30 min 0.01 0.01
2018 May 31, 23:21 27.59019° -82.93150° 30 min 0.01 0.01
2018 May 31, 22:51 27.59012° -82.93150° 30 min 0.02 0.01
2018 May 31, 22:21 27.59006° -82.93150° 30 min 0.02 0.00
318°
2018 May 31, 21:51 27.59004° -82.93148° 30 min 0.02 0.00
90°
2018 May 31, 21:21 27.59004° -82.93150° 30 min 0.02 0.00
316°
2018 May 31, 20:51 27.59002° -82.93148° 30 min 0.02 0.00
180°
2018 May 31, 20:21 27.59003° -82.93148° 30 min 0.02 0.01
292°
2018 May 31, 19:51 27.59000° -82.93139° 30 min 0.02 0.02
186°
2018 May 31, 19:21 27.59012° -82.93137° 30 min 0.01 0.02
205°
2018 May 31, 18:51 27.59030° -82.93128° 30 min 0.00 0.01
212°
2018 May 31, 18:21 27.59035° -82.93124° 30 min 0.00 0.01
270°
2018 May 31, 17:51 27.59035° -82.93118° 30 min 0.01 0.00
2018 May 31, 17:21 27.59034° -82.93118° 30 min 0.01 0.00
270°
2018 May 31, 16:51 27.59034° -82.93114° 30 min 0.01 0.00
125°
2018 May 31, 16:21 27.59035° -82.93115° 30 min 0.01 0.00
138°
2018 May 31, 15:51 27.59037° -82.93118° 30 min 0.01 0.00
318°
2018 May 31, 15:21 27.59035° -82.93115° 30 min 0.01 0.00
148°
2018 May 31, 14:51 27.59038° -82.93118° 30 min 0.01 0.00
270°
2018 May 31, 14:21 27.59038° -82.93115° 30 min 0.01 0.01
106°
2018 May 31, 13:51 27.59039° -82.93120° 30 min 0.01 0.00
90°
2018 May 31, 13:21 27.59039° -82.93122° 30 min 0.01 0.00
2018 May 31, 12:51 27.59037° -82.93122° 30 min 0.01 0.00
90°
2018 May 31, 12:21 27.59037° -82.93127° 30 min 0.00 0.00
180°
2018 May 31, 11:51 27.59038° -82.93127° 30 min 0.01 0.01
90°
2018 May 31, 11:21 27.59038° -82.93133° 30 min 0.01 0.01
2018 May 31, 10:51 27.59034° -82.93133° 30 min 0.00 0.01
257°
2018 May 31, 10:21 27.59035° -82.93128° 30 min 0.00 0.01
71°
2018 May 31, 09:51 27.59033° -82.93135° 30 min 0.00 0.01
78°
2018 May 31, 09:21 27.59032° -82.93141° 30 min 0.01 0.01
231°
2018 May 31, 08:51 27.59036° -82.93135° 30 min 0.00 0.01
259°
2018 May 31, 08:21 27.59037° -82.93128° 30 min 0.00 0.00
304°
2018 May 31, 07:51 27.59035° -82.93124° 30 min 0.00 0.01
180°
2018 May 31, 07:21 27.59039° -82.93124° 30 min 0.01 0.01
289°
2018 May 31, 06:51 27.59037° -82.93118° 30 min 0.01 0.00
42°
2018 May 31, 06:21 27.59035° -82.93120° 30 min 0.01 0.00
212°
2018 May 31, 05:51 27.59038° -82.93118° 30 min 0.01 0.00
295°
2018 May 31, 05:21 27.59037° -82.93115° 30 min 0.01 0.01
109°
2018 May 31, 04:51 27.59039° -82.93122° 30 min 0.01 0.00
316°
2018 May 31, 04:21 27.59037° -82.93120° 30 min 0.01 0.00
180°
2018 May 31, 03:51 27.59039° -82.93120° 30 min 0.01 0.01
106°
2018 May 31, 03:21 27.59040° -82.93124° 30 min 0.01 0.00
180°
2018 May 31, 02:51 27.59041° -82.93124° 30 min 0.01 0.00
90°
2018 May 31, 02:21 27.59041° -82.93127° 30 min 0.01 0.01
80°
2018 May 31, 01:51 27.59040° -82.93133° 30 min 0.01 0.00
61°
2018 May 31, 01:21 27.59039° -82.93135° 30 min 0.01 0.00
90°
2018 May 31, 00:51 27.59039° -82.93137° 30 min 0.01 0.00
71°
2018 May 31, 00:21 27.59038° -82.93141° 30 min 0.01 0.01
63°
2018 May 30, 23:51 27.59036° -82.93146° 30 min 0.01 0.00
2018 May 30, 23:21 27.59036° -82.93146° 30 min 0.01 0.01
106°
2018 May 30, 22:51 27.59037° -82.93150° 30 min 0.01 0.00
2018 May 30, 22:21 27.59037° -82.93150° 30 min 0.01 0.00
23°
2018 May 30, 21:51 27.59034° -82.93152° 30 min 0.01 0.00
2018 May 30, 21:21 27.59032° -82.93152° 30 min 0.01 0.00
2018 May 30, 20:51 27.59032° -82.93152° 30 min 0.01 0.00
180°
2018 May 30, 20:21 27.59033° -82.93152° 30 min 0.01 0.00
310°
2018 May 30, 19:51 27.59032° -82.93150° 30 min 0.01 0.00
180°
2018 May 30, 19:21 27.59034° -82.93150° 30 min 0.01 0.00
2018 May 30, 18:51 27.59033° -82.93150° 30 min 0.01 0.01
243°
2018 May 30, 18:21 27.59035° -82.93146° 30 min 0.01 0.01
242°
2018 May 30, 17:51 27.59038° -82.93139° 30 min 0.01 0.01
261°
2018 May 30, 17:21 27.59039° -82.93130° 30 min 0.01 0.00
241°
2018 May 30, 16:51 27.59040° -82.93128° 30 min 0.01 0.00
270°
2018 May 30, 16:21 27.59040° -82.93124° 30 min 0.01 0.00
2018 May 30, 15:51 27.59040° -82.93124° 30 min 0.01 0.00
2018 May 30, 15:21 27.59040° -82.93124° 30 min 0.01 0.01
132°
2018 May 30, 14:51 27.59044° -82.93128° 30 min 0.01 0.00
270°
2018 May 30, 14:21 27.59044° -82.93127° 30 min 0.01 0.00
33°
2018 May 30, 13:51 27.59041° -82.93128° 30 min 0.01 0.00
2018 May 30, 13:21 27.59039° -82.93128° 30 min 0.01 0.01
74°
2018 May 30, 12:51 27.59038° -82.93133° 30 min 0.01 0.00
90°
2018 May 30, 12:21 27.59038° -82.93137° 30 min 0.01 0.01
69°
2018 May 30, 11:51 27.59036° -82.93143° 30 min 0.01 0.00
241°
2018 May 30, 11:21 27.59037° -82.93141° 30 min 0.01 0.00
42°
2018 May 30, 10:51 27.59035° -82.93143° 30 min 0.01 0.00
270°
2018 May 30, 10:21 27.59035° -82.93141° 30 min 0.01 0.00
119°
2018 May 30, 09:51 27.59036° -82.93143° 30 min 0.01 0.00
270°
2018 May 30, 09:21 27.59036° -82.93141° 30 min 0.01 0.00
270°
2018 May 30, 08:51 27.59036° -82.93139° 30 min 0.01 0.01
74°
2018 May 30, 08:21 27.59035° -82.93143° 30 min 0.01 0.00
90°
2018 May 30, 07:51 27.59035° -82.93146° 30 min 0.01 0.01
241°
2018 May 30, 07:21 27.59037° -82.93141° 30 min 0.01 0.00
61°
2018 May 30, 06:51 27.59036° -82.93143° 30 min 0.01 0.00
224°
2018 May 30, 06:21 27.59038° -82.93141° 30 min 0.01 0.00
236°
2018 May 30, 05:51 27.59040° -82.93137° 30 min 0.01 0.01
270°
2018 May 30, 05:21 27.59040° -82.93130° 30 min 0.01 0.01
282°
2018 May 30, 04:51 27.59039° -82.93124° 30 min 0.01 0.00
90°
2018 May 30, 04:21 27.59039° -82.93128° 30 min 0.01 0.00
180°
2018 May 30, 03:51 27.59040° -82.93128° 30 min 0.01 0.00
270°
2018 May 30, 03:21 27.59040° -82.93124° 30 min 0.01 0.00
90°
2018 May 30, 02:51 27.59040° -82.93127° 30 min 0.01 0.00
106°
2018 May 30, 02:21 27.59041° -82.93130° 30 min 0.01 0.00
270°
2018 May 30, 01:51 27.59041° -82.93128° 30 min 0.01 0.00
90°
2018 May 30, 01:21 27.59041° -82.93133° 30 min 0.01 0.00
90°
2018 May 30, 00:51 27.59041° -82.93135° 30 min 0.01 0.00
2018 May 30, 00:21 27.59041° -82.93135° 30 min 0.01 0.01
80°
2018 May 29, 23:51 27.59040° -82.93141° 30 min 0.01 0.00
90°
2018 May 29, 23:21 27.59040° -82.93146° 30 min 0.01 0.00
180°
2018 May 29, 22:51 27.59041° -82.93146° 30 min 0.01 0.00
2018 May 29, 22:21 27.59040° -82.93146° 30 min 0.01 0.01
61°
2018 May 29, 21:51 27.59038° -82.93150° 30 min 0.01 0.00
270°
2018 May 29, 21:21 27.59038° -82.93148° 30 min 0.01 0.00
2018 May 29, 20:51 27.59037° -82.93148° 30 min 0.01 0.00
61°
2018 May 29, 20:21 27.59036° -82.93150° 30 min 0.01 0.00
299°
2018 May 29, 19:51 27.59035° -82.93148° 30 min 0.01 0.00
241°
2018 May 29, 19:21 27.59036° -82.93146° 30 min 0.01 0.00
90°
2018 May 29, 18:51 27.59036° -82.93148° 30 min 0.01 0.00
299°
2018 May 29, 18:21 27.59035° -82.93146° 30 min 0.01 0.01
228°
2018 May 29, 17:51 27.59040° -82.93139° 30 min 0.01 0.00
235°
2018 May 29, 17:21 27.59041° -82.93137° 30 min 0.01 0.00
2018 May 29, 16:51 27.59040° -82.93137° 30 min 0.01 0.00
270°
2018 May 29, 16:21 27.59040° -82.93135° 30 min 0.01 0.00
270°
2018 May 29, 15:51 27.59040° -82.93130° 30 min 0.01 0.00
299°
2018 May 29, 15:21 27.59039° -82.93128° 30 min 0.01 0.00
136°
2018 May 29, 14:51 27.59041° -82.93130° 30 min 0.01 0.00
2018 May 29, 14:21 27.59041° -82.93130° 30 min 0.01 0.00
286°
2018 May 29, 13:51 27.59040° -82.93127° 30 min 0.01 0.00
2018 May 29, 13:21 27.59040° -82.93127° 30 min 0.01 0.00
2018 May 29, 12:51 27.59040° -82.93127° 30 min 0.01 0.00
90°
2018 May 29, 12:21 27.59040° -82.93130° 30 min 0.01 0.00
2018 May 29, 11:51 27.59040° -82.93130° 30 min 0.01 0.00
90°
2018 May 29, 11:21 27.59040° -82.93133° 30 min 0.01 0.01
74°
2018 May 29, 10:51 27.59039° -82.93137° 30 min 0.01 0.00
2018 May 29, 10:21 27.59038° -82.93137° 30 min 0.01 0.00
90°
2018 May 29, 09:51 27.59038° -82.93139° 30 min 0.01 0.00
90°
2018 May 29, 09:21 27.59038° -82.93141° 30 min 0.01 0.00
236°
2018 May 29, 08:51 27.59040° -82.93137° 30 min 0.01 0.00
71°
2018 May 29, 08:21 27.59039° -82.93141° 30 min 0.01 0.00
270°
2018 May 29, 07:51 27.59039° -82.93137° 30 min 0.01 0.00
180°
2018 May 29, 07:21 27.59040° -82.93137° 30 min 0.01 0.00
90°
2018 May 29, 06:51 27.59040° -82.93139° 30 min 0.01 0.00
270°
2018 May 29, 06:21 27.59040° -82.93137° 30 min 0.01 0.00
245°
2018 May 29, 05:51 27.59041° -82.93135° 30 min 0.01 0.01
254°
2018 May 29, 05:21 27.59043° -82.93130° 30 min 0.01 0.00
2018 May 29, 04:51 27.59040° -82.93130° 30 min 0.01 0.00
270°
2018 May 29, 04:21 27.59040° -82.93128° 30 min 0.01 0.00
90°
2018 May 29, 03:51 27.59040° -82.93130° 30 min 0.01 0.00
214°
2018 May 29, 03:21 27.59044° -82.93128° 30 min 0.01 0.00
2018 May 29, 02:51 27.59043° -82.93128° 30 min 0.01 0.00
61°
2018 May 29, 02:21 27.59041° -82.93130° 30 min 0.01 0.00
241°
2018 May 29, 01:51 27.59043° -82.93128° 30 min 0.01 0.00
235°
2018 May 29, 01:21 27.59044° -82.93127° 30 min 0.01 0.00
74°
2018 May 29, 00:51 27.59043° -82.93130° 30 min 0.01 0.01
103°
2018 May 29, 00:21 27.59044° -82.93135° 30 min 0.01 0.00
2018 May 28, 23:51 27.59041° -82.93135° 30 min 0.01 0.00
180°
2018 May 28, 23:21 27.59045° -82.93135° 30 min 0.01 0.00
90°
2018 May 28, 22:51 27.59045° -82.93137° 30 min 0.01 0.00
71°
2018 May 28, 22:21 27.59044° -82.93141° 30 min 0.01 0.00
2018 May 28, 21:51 27.59040° -82.93141° 30 min 0.01 0.00
180°
2018 May 28, 21:21 27.59041° -82.93141° 30 min 0.01 0.00
90°
2018 May 28, 20:51 27.59041° -82.93146° 30 min 0.01 0.00
270°
2018 May 28, 20:21 27.59041° -82.93143° 30 min 0.01 0.00
65°
2018 May 28, 19:51 27.59040° -82.93146° 30 min 0.01 0.00
270°
2018 May 28, 19:21 27.59040° -82.93143° 30 min 0.01 0.00
90°
2018 May 28, 18:51 27.59040° -82.93146° 30 min 0.01 0.00
90°
2018 May 28, 18:21 27.59040° -82.93148° 30 min 0.01 0.01
251°
2018 May 28, 17:51 27.59043° -82.93141° 30 min 0.01 0.00
254°
2018 May 28, 17:21 27.59044° -82.93137° 30 min 0.01 0.00
2018 May 28, 16:51 27.59044° -82.93137° 30 min 0.01 0.00
316°
2018 May 28, 16:21 27.59041° -82.93135° 30 min 0.01 0.01
243°
2018 May 28, 15:51 27.59044° -82.93130° 30 min 0.01 0.00
2018 May 28, 15:21 27.59043° -82.93130° 30 min 0.01 0.00
2018 May 28, 14:51 27.59043° -82.93130° 30 min 0.01 0.00
245°
2018 May 28, 14:21 27.59044° -82.93128° 30 min 0.01 0.00
270°
2018 May 28, 13:51 27.59044° -82.93127° 30 min 0.01 0.00
2018 May 28, 13:21 27.59043° -82.93127° 30 min 0.01 0.00
90°
2018 May 28, 12:51 27.59043° -82.93128° 30 min 0.01 0.00
90°
2018 May 28, 12:21 27.59043° -82.93130° 30 min 0.01 0.00
2018 May 28, 11:51 27.59043° -82.93130° 30 min 0.01 0.00
115°
2018 May 28, 11:21 27.59044° -82.93133° 30 min 0.01 0.00
270°
2018 May 28, 10:51 27.59044° -82.93130° 30 min 0.01 0.01
71°
2018 May 28, 10:21 27.59041° -82.93137° 30 min 0.01 0.00
270°
2018 May 28, 09:51 27.59041° -82.93135° 30 min 0.01 0.01
80°
2018 May 28, 09:21 27.59040° -82.93141° 30 min 0.01 0.00
270°
2018 May 28, 08:51 27.59040° -82.93139° 30 min 0.01 0.00
254°
2018 May 28, 08:21 27.59041° -82.93135° 30 min 0.01 0.00
2018 May 28, 07:51 27.59041° -82.93135° 30 min 0.01 0.01
66°
2018 May 28, 07:21 27.59038° -82.93143° 30 min 0.01 0.00
241°
2018 May 28, 06:51 27.59039° -82.93141° 30 min 0.01 0.00
90°
2018 May 28, 06:21 27.59039° -82.93143° 30 min 0.01 0.00
270°
2018 May 28, 05:51 27.59039° -82.93141° 30 min 0.01 0.00
251°
2018 May 28, 05:21 27.59040° -82.93137° 30 min 0.01 0.01
257°
2018 May 28, 04:51 27.59041° -82.93133° 30 min 0.01 0.00
65°
2018 May 28, 04:21 27.59040° -82.93135° 30 min 0.01 0.00
2018 May 28, 03:51 27.59040° -82.93135° 30 min 0.01 0.00
245°
2018 May 28, 03:21 27.59041° -82.93133° 30 min 0.01 0.01
77°
2018 May 28, 02:51 27.59040° -82.93137° 30 min 0.01 0.01
263°
2018 May 28, 02:21 27.59041° -82.93128° 30 min 0.01 0.01
77°
2018 May 28, 01:51 27.59040° -82.93133° 30 min 0.01 0.00
245°
2018 May 28, 01:21 27.59041° -82.93130° 30 min 0.01 0.01
77°
2018 May 28, 00:51 27.59040° -82.93135° 30 min 0.01 0.00
61°
2018 May 28, 00:21 27.59039° -82.93137° 30 min 0.01 0.00
180°
2018 May 27, 23:51 27.59040° -82.93137° 30 min 0.01 0.00
125°
2018 May 27, 23:21 27.59041° -82.93139° 30 min 0.01 0.00
119°
2018 May 27, 22:51 27.59043° -82.93141° 30 min 0.01 0.00
2018 May 27, 22:21 27.59040° -82.93141° 30 min 0.01 0.00
2018 May 27, 21:51 27.59039° -82.93141° 30 min 0.01 0.00
136°
2018 May 27, 21:21 27.59041° -82.93143° 30 min 0.01 0.00
90°
2018 May 27, 20:51 27.59041° -82.93146° 30 min 0.01 0.00
2018 May 27, 20:21 27.59040° -82.93146° 30 min 0.01 0.00
180°
2018 May 27, 19:51 27.59041° -82.93146° 30 min 0.01 0.00
2018 May 27, 19:21 27.59040° -82.93146° 30 min 0.01 0.00
245°
2018 May 27, 18:51 27.59041° -82.93143° 30 min 0.01 0.00
2018 May 27, 18:21 27.59041° -82.93143° 30 min 0.01 0.00
270°
2018 May 27, 17:51 27.59041° -82.93141° 30 min 0.01 0.00
224°
2018 May 27, 17:21 27.59044° -82.93139° 30 min 0.01 0.00
270°
2018 May 27, 16:51 27.59044° -82.93137° 30 min 0.01 0.00
2018 May 27, 16:21 27.59043° -82.93137° 30 min 0.01 0.00
33°
2018 May 27, 15:51 27.59040° -82.93139° 30 min 0.01 0.00
235°
2018 May 27, 15:21 27.59041° -82.93137° 30 min 0.01 0.00
55°
2018 May 27, 14:51 27.59040° -82.93139° 30 min 0.01 0.00
61°
2018 May 27, 14:21 27.59039° -82.93141° 30 min 0.01 0.00
2018 May 27, 13:51 27.59038° -82.93141° 30 min 0.01 0.00
241°
2018 May 27, 13:21 27.59039° -82.93139° 30 min 0.01 0.00
119°
2018 May 27, 12:51 27.59040° -82.93141° 30 min 0.01 0.00
299°
2018 May 27, 12:21 27.59039° -82.93139° 30 min 0.01 0.00
2018 May 27, 11:51 27.59039° -82.93139° 30 min 0.01 0.00
44°
2018 May 27, 11:21 27.59037° -82.93141° 30 min 0.01 0.01
79°
2018 May 27, 10:51 27.59036° -82.93148° 30 min 0.01 0.00
241°
2018 May 27, 10:21 27.59037° -82.93146° 30 min 0.01 0.00
42°
2018 May 27, 09:51 27.59035° -82.93148° 30 min 0.01 0.01
32°
2018 May 27, 09:21 27.59030° -82.93152° 30 min 0.01 0.01
21°
2018 May 27, 08:51 27.59024° -82.93154° 30 min 0.01 0.00
44°
2018 May 27, 08:21 27.59022° -82.93156° 30 min 0.01 0.01
206°
2018 May 27, 07:51 27.59026° -82.93154° 30 min 0.01 0.01
37°
2018 May 27, 07:21 27.59021° -82.93159° 30 min 0.02 0.00
2018 May 27, 06:51 27.59020° -82.93159° 30 min 0.02 0.01
335°
2018 May 27, 06:21 27.59016° -82.93156° 30 min 0.02 0.00
180°
2018 May 27, 05:51 27.59017° -82.93156° 30 min 0.02 0.01
206°
2018 May 27, 05:21 27.59021° -82.93154° 30 min 0.01 0.00
180°
2018 May 27, 04:51 27.59024° -82.93154° 30 min 0.01 0.00
2018 May 27, 04:21 27.59023° -82.93154° 30 min 0.01 0.00
270°
2018 May 27, 03:51 27.59023° -82.93152° 30 min 0.01 0.01
198°
2018 May 27, 03:21 27.59027° -82.93150° 30 min 0.01 0.01
231°
2018 May 27, 02:51 27.59031° -82.93146° 30 min 0.01 0.00
180°
2018 May 27, 02:21 27.59032° -82.93146° 30 min 0.01 0.00
180°
2018 May 27, 01:51 27.59033° -82.93146° 30 min 0.01 0.01
245°
2018 May 27, 01:21 27.59037° -82.93135° 30 min 0.01 0.00
115°
2018 May 27, 00:51 27.59038° -82.93137° 30 min 0.01 0.00
270°
2018 May 27, 00:21 27.59038° -82.93135° 30 min 0.01 0.00
90°
2018 May 26, 23:51 27.59038° -82.93137° 30 min 0.01 0.00
90°
2018 May 26, 23:21 27.59038° -82.93141° 30 min 0.01 0.00
119°
2018 May 26, 22:51 27.59039° -82.93143° 30 min 0.01 0.00
2018 May 26, 22:21 27.59037° -82.93143° 30 min 0.01 0.01
43°
2018 May 26, 21:51 27.59033° -82.93148° 30 min 0.01 0.01
26°
2018 May 26, 21:21 27.59029° -82.93150° 30 min 0.01 0.01
32°
2018 May 26, 20:51 27.59023° -82.93154° 30 min 0.01 0.00
214°
2018 May 26, 20:21 27.59026° -82.93152° 30 min 0.01 0.01
44°
2018 May 26, 19:51 27.59022° -82.93156° 30 min 0.01 0.01
25°
2018 May 26, 19:21 27.59018° -82.93159° 30 min 0.02 0.00
2018 May 26, 18:51 27.59017° -82.93159° 30 min 0.02 0.00
2018 May 26, 18:21 27.59015° -82.93159° 30 min 0.02 0.00
295°
2018 May 26, 17:51 27.59014° -82.93156° 30 min 0.02 0.00
180°
2018 May 26, 17:21 27.59015° -82.93156° 30 min 0.02 0.00
180°
2018 May 26, 16:51 27.59017° -82.93156° 30 min 0.02 0.00
245°
2018 May 26, 16:21 27.59018° -82.93154° 30 min 0.01 0.01
205°
2018 May 26, 15:51 27.59022° -82.93152° 30 min 0.01 0.00
203°
2018 May 26, 15:21 27.59025° -82.93150° 30 min 0.01 0.01
227°
2018 May 26, 14:51 27.59033° -82.93141° 30 min 0.01 0.01
239°
2018 May 26, 14:21 27.59036° -82.93135° 30 min 0.00 0.01
251°
2018 May 26, 13:51 27.59038° -82.93128° 30 min 0.00 0.00
230°
2018 May 26, 13:21 27.59039° -82.93127° 30 min 0.01 0.00
90°
2018 May 26, 12:51 27.59039° -82.93130° 30 min 0.01 0.00
251°
2018 May 26, 12:21 27.59040° -82.93127° 30 min 0.01 0.00
90°
2018 May 26, 11:51 27.59040° -82.93128° 30 min 0.01 0.00
2018 May 26, 11:21 27.59040° -82.93128° 30 min 0.01 0.00
2018 May 26, 10:51 27.59039° -82.93128° 30 min 0.01 0.01
90°
2018 May 26, 10:21 27.59039° -82.93135° 30 min 0.01 0.00
61°
2018 May 26, 09:51 27.59038° -82.93137° 30 min 0.01 0.00
74°
2018 May 26, 09:21 27.59037° -82.93141° 30 min 0.01 0.00
2018 May 26, 08:51 27.59036° -82.93141° 30 min 0.01 0.01
71°
2018 May 26, 08:21 27.59034° -82.93148° 30 min 0.01 0.00
32°
2018 May 26, 07:51 27.59031° -82.93150° 30 min 0.01 0.00
2018 May 26, 07:21 27.59031° -82.93150° 30 min 0.01 0.00
180°
2018 May 26, 06:51 27.59033° -82.93150° 30 min 0.01 0.00
180°
2018 May 26, 06:21 27.59034° -82.93150° 30 min 0.01 0.00
2018 May 26, 05:51 27.59033° -82.93150° 30 min 0.01 0.00
299°
2018 May 26, 05:21 27.59032° -82.93148° 30 min 0.01 0.00
58°
2018 May 26, 04:51 27.59030° -82.93152° 30 min 0.01 0.01
226°
2018 May 26, 04:21 27.59033° -82.93148° 30 min 0.01 0.01
223°
2018 May 26, 03:51 27.59037° -82.93143° 30 min 0.01 0.01
260°
2018 May 26, 03:21 27.59038° -82.93137° 30 min 0.01 0.01
283°
2018 May 26, 02:51 27.59037° -82.93133° 30 min 0.00 0.01
260°
2018 May 26, 02:21 27.59038° -82.93127° 30 min 0.01 0.00
222°
2018 May 26, 01:51 27.59040° -82.93124° 30 min 0.01 0.00
90°
2018 May 26, 01:21 27.59040° -82.93127° 30 min 0.01 0.00
2018 May 26, 00:51 27.59039° -82.93127° 30 min 0.01 0.00
130°
2018 May 26, 00:21 27.59040° -82.93128° 30 min 0.01 0.00
2018 May 25, 23:51 27.59040° -82.93128° 30 min 0.01 0.00
90°
2018 May 25, 23:21 27.59040° -82.93133° 30 min 0.01 0.00
2018 May 25, 22:51 27.59040° -82.93133° 30 min 0.01 0.01
74°
2018 May 25, 22:21 27.59039° -82.93137° 30 min 0.01 0.00
58°
2018 May 25, 21:51 27.59037° -82.93141° 30 min 0.01 0.00
61°
2018 May 25, 21:21 27.59036° -82.93143° 30 min 0.01 0.01
54°
2018 May 25, 20:51 27.59032° -82.93150° 30 min 0.01 0.00
55°
2018 May 25, 20:21 27.59031° -82.93152° 30 min 0.01 0.01
21°
2018 May 25, 19:51 27.59025° -82.93154° 30 min 0.01 0.01
25°
2018 May 25, 19:21 27.59021° -82.93156° 30 min 0.02 0.02
2018 May 25, 18:51 27.59008° -82.93156° 30 min 0.02 0.00
299°
2018 May 25, 18:21 27.59007° -82.93154° 30 min 0.02 0.00
2018 May 25, 17:51 27.59005° -82.93154° 30 min 0.02 0.00
2018 May 25, 17:21 27.59004° -82.93154° 30 min 0.02 0.00
270°
2018 May 25, 16:51 27.59004° -82.93152° 30 min 0.02 0.00
2018 May 25, 16:21 27.59003° -82.93152° 30 min 0.02 0.00
2018 May 25, 15:51 27.59002° -82.93152° 30 min 0.02 0.01
155°
2018 May 25, 15:21 27.59006° -82.93154° 30 min 0.02 0.00
180°
2018 May 25, 14:51 27.59008° -82.93154° 30 min 0.02 0.00
224°
2018 May 25, 14:21 27.59010° -82.93152° 30 min 0.02 0.01
180°
2018 May 25, 13:51 27.59016° -82.93152° 30 min 0.01 0.01
207°
2018 May 25, 13:21 27.59026° -82.93146° 30 min 0.01 0.01
212°
2018 May 25, 12:51 27.59033° -82.93141° 30 min 0.01 0.00
270°
2018 May 25, 12:21 27.59033° -82.93139° 30 min 0.01 0.00
238°
2018 May 25, 11:51 27.59035° -82.93135° 30 min 0.00 0.00
74°
2018 May 25, 11:21 27.59034° -82.93139° 30 min 0.01 0.00
2018 May 25, 10:51 27.59033° -82.93139° 30 min 0.01 0.00
61°
2018 May 25, 10:21 27.59032° -82.93141° 30 min 0.01 0.01
77°
2018 May 25, 09:51 27.59031° -82.93146° 30 min 0.01 0.00
61°
2018 May 25, 09:21 27.59030° -82.93148° 30 min 0.01 0.01
18°
2018 May 25, 08:51 27.59023° -82.93150° 30 min 0.01 0.01
17°
2018 May 25, 08:21 27.59019° -82.93152° 30 min 0.01 0.01
2018 May 25, 07:51 27.59012° -82.93152° 30 min 0.02 0.01
2018 May 25, 07:21 27.59007° -82.93152° 30 min 0.02 0.01
2018 May 25, 06:51 27.59003° -82.93152° 30 min 0.02 0.00
2018 May 25, 06:21 27.59002° -82.93152° 30 min 0.02 0.00
2018 May 25, 05:51 27.59001° -82.93152° 30 min 0.02 0.00
302°
2018 May 25, 05:21 27.58998° -82.93148° 30 min 0.02 0.01
297°
2018 May 25, 04:51 27.58996° -82.93143° 30 min 0.02 0.01
286°
2018 May 25, 04:21 27.58995° -82.93139° 30 min 0.02 0.00
302°
2018 May 25, 03:51 27.58993° -82.93135° 30 min 0.02 0.01
254°
2018 May 25, 03:21 27.58995° -82.93127° 30 min 0.02 0.03
227°
2018 May 25, 02:51 27.59011° -82.93107° 30 min 0.02 0.01
180°
2018 May 25, 02:21 27.59023° -82.93107° 30 min 0.01 0.00
180°
2018 May 25, 01:51 27.59026° -82.93107° 30 min 0.01 0.01
137°
2018 May 25, 01:21 27.59031° -82.93111° 30 min 0.01 0.00
180°
2018 May 25, 00:51 27.59034° -82.93111° 30 min 0.01 0.00
245°
2018 May 25, 00:21 27.59035° -82.93109° 30 min 0.01 0.01
119°
2018 May 24, 23:51 27.59037° -82.93114° 30 min 0.01 0.01
134°
2018 May 24, 23:21 27.59040° -82.93118° 30 min 0.01 0.00
2018 May 24, 22:51 27.59038° -82.93118° 30 min 0.01 0.01
280°
2018 May 24, 22:21 27.59037° -82.93111° 30 min 0.01 0.00
2018 May 24, 21:51 27.59037° -82.93111° 30 min 0.01 0.01
100°
2018 May 24, 21:21 27.59038° -82.93118° 30 min 0.01 0.01
77°
2018 May 24, 20:51 27.59037° -82.93122° 30 min 0.01 0.01
73°
2018 May 24, 20:21 27.59035° -82.93130° 30 min 0.00 0.01
56°
2018 May 24, 19:51 27.59029° -82.93141° 30 min 0.01 0.01
57°
2018 May 24, 19:21 27.59023° -82.93150° 30 min 0.01 0.01
38°
2018 May 24, 18:51 27.59019° -82.93154° 30 min 0.01 0.01
2018 May 24, 18:21 27.59014° -82.93154° 30 min 0.02 0.01
335°
2018 May 24, 17:51 27.59009° -82.93152° 30 min 0.02 0.00
34°
2018 May 24, 17:21 27.59006° -82.93154° 30 min 0.02 0.00
2018 May 24, 16:51 27.59006° -82.93154° 30 min 0.02 0.01
335°
2018 May 24, 16:21 27.59002° -82.93152° 30 min 0.02 0.00
180°
2018 May 24, 15:51 27.59003° -82.93152° 30 min 0.02 0.00
180°
2018 May 24, 15:21 27.59004° -82.93152° 30 min 0.02 0.00
2018 May 24, 14:51 27.59003° -82.93152° 30 min 0.02 0.00
180°
2018 May 24, 14:21 27.59006° -82.93152° 30 min 0.02 0.00
2018 May 24, 13:51 27.59005° -82.93152° 30 min 0.02 0.01
194°
2018 May 24, 13:21 27.59010° -82.93150° 30 min 0.02 0.01
219°
2018 May 24, 12:51 27.59018° -82.93143° 30 min 0.01 0.02
224°
2018 May 24, 12:21 27.59030° -82.93130° 30 min 0.00 0.01
291°
2018 May 24, 11:51 27.59027° -82.93124° 30 min 0.00 0.00
136°
2018 May 24, 11:21 27.59030° -82.93127° 30 min 0.00 0.00
74°
2018 May 24, 10:51 27.59029° -82.93130° 30 min 0.00 0.00
180°
2018 May 24, 10:21 27.59031° -82.93130° 30 min 0.00 0.01
99°
2018 May 24, 09:51 27.59032° -82.93137° 30 min 0.00 0.01
80°
2018 May 24, 09:21 27.59031° -82.93143° 30 min 0.01 0.00
44°
2018 May 24, 08:51 27.59029° -82.93146° 30 min 0.01 0.01
25°
2018 May 24, 08:21 27.59024° -82.93148° 30 min 0.01 0.02
2018 May 24, 07:51 27.59011° -82.93150° 30 min 0.02 0.01
2018 May 24, 07:21 27.59005° -82.93150° 30 min 0.02 0.01
347°
2018 May 24, 06:51 27.58996° -82.93148° 30 min 0.02 0.00
115°
2018 May 24, 06:21 27.58997° -82.93150° 30 min 0.02 0.01
297°
2018 May 24, 05:51 27.58995° -82.93146° 30 min 0.02 0.00
295°
2018 May 24, 05:21 27.58994° -82.93143° 30 min 0.02 0.01
323°
2018 May 24, 04:51 27.58989° -82.93139° 30 min 0.03 0.00
235°
2018 May 24, 04:21 27.58990° -82.93137° 30 min 0.02 0.00
180°
2018 May 24, 03:51 27.58992° -82.93137° 30 min 0.02 0.01
259°
2018 May 24, 03:21 27.58993° -82.93130° 30 min 0.02 0.01
321°
2018 May 24, 02:51 27.58989° -82.93127° 30 min 0.02 0.00
224°
2018 May 24, 02:21 27.58991° -82.93124° 30 min 0.02 0.01
260°
2018 May 24, 01:51 27.58993° -82.93111° 30 min 0.02 0.01
217°
2018 May 24, 01:21 27.59003° -82.93103° 30 min 0.02 0.02
180°
2018 May 24, 00:51 27.59018° -82.93103° 30 min 0.02 0.01
168°
2018 May 24, 00:21 27.59024° -82.93105° 30 min 0.01 0.01
163°
2018 May 23, 23:51 27.59031° -82.93107° 30 min 0.01 0.00
270°
2018 May 23, 23:21 27.59031° -82.93105° 30 min 0.01 0.01
136°
2018 May 23, 22:51 27.59035° -82.93109° 30 min 0.01 0.00
180°
2018 May 23, 22:21 27.59036° -82.93109° 30 min 0.01 0.00
119°
2018 May 23, 21:51 27.59037° -82.93111° 30 min 0.01 0.01
111°
2018 May 23, 21:21 27.59039° -82.93118° 30 min 0.01 0.01
74°
2018 May 23, 20:51 27.59038° -82.93122° 30 min 0.01 0.00
2018 May 23, 20:21 27.59038° -82.93122° 30 min 0.01 0.01
90°
2018 May 23, 19:51 27.59038° -82.93128° 30 min 0.00 0.01
83°
2018 May 23, 19:21 27.59037° -82.93137° 30 min 0.01 0.00
71°
2018 May 23, 18:51 27.59036° -82.93141° 30 min 0.01 0.00
119°
2018 May 23, 18:21 27.59037° -82.93143° 30 min 0.01 0.01
36°
2018 May 23, 17:51 27.59032° -82.93148° 30 min 0.01 0.00
34°
2018 May 23, 17:21 27.59029° -82.93150° 30 min 0.01 0.00
2018 May 23, 16:51 27.59029° -82.93150° 30 min 0.01 0.00
2018 May 23, 16:21 27.59029° -82.93150° 30 min 0.01 0.00
2018 May 23, 15:51 27.59026° -82.93150° 30 min 0.01 0.00
157°
2018 May 23, 15:21 27.59030° -82.93152° 30 min 0.01 0.00
270°
2018 May 23, 14:51 27.59030° -82.93148° 30 min 0.01 0.00
65°
2018 May 23, 14:21 27.59029° -82.93150° 30 min 0.01 0.00
180°
2018 May 23, 13:51 27.59030° -82.93150° 30 min 0.01 0.01
231°
2018 May 23, 13:21 27.59033° -82.93146° 30 min 0.01 0.01
246°
2018 May 23, 12:51 27.59036° -82.93137° 30 min 0.01 0.00
241°
2018 May 23, 12:21 27.59037° -82.93135° 30 min 0.01 0.01
257°
2018 May 23, 11:51 27.59038° -82.93130° 30 min 0.00 0.00
180°
2018 May 23, 11:21 27.59039° -82.93130° 30 min 0.01 0.00
270°
2018 May 23, 10:51 27.59039° -82.93127° 30 min 0.01 0.00
90°
2018 May 23, 10:21 27.59039° -82.93128° 30 min 0.01 0.01
74°
2018 May 23, 09:51 27.59038° -82.93133° 30 min 0.01 0.00
241°
2018 May 23, 09:21 27.59039° -82.93130° 30 min 0.01 0.00
241°
2018 May 23, 08:51 27.59040° -82.93128° 30 min 0.01 0.00
90°
2018 May 23, 08:21 27.59040° -82.93133° 30 min 0.01 0.01
103°
2018 May 23, 07:51 27.59041° -82.93137° 30 min 0.01 0.00
33°
2018 May 23, 07:21 27.59039° -82.93139° 30 min 0.01 0.01
2018 May 23, 06:51 27.59034° -82.93139° 30 min 0.01 0.01
90°
2018 May 23, 06:21 27.59034° -82.93148° 30 min 0.01 0.00
328°
2018 May 23, 05:51 27.59031° -82.93146° 30 min 0.01 0.01
74°
2018 May 23, 05:21 27.59030° -82.93150° 30 min 0.01 0.00
23°
2018 May 23, 04:51 27.59026° -82.93152° 30 min 0.01 0.00
180°
2018 May 23, 04:21 27.59027° -82.93152° 30 min 0.01 0.00
2018 May 23, 03:51 27.59025° -82.93152° 30 min 0.01 0.00
2018 May 23, 03:21 27.59024° -82.93152° 30 min 0.01 0.00
2018 May 23, 02:51 27.59024° -82.93152° 30 min 0.01 0.00
2018 May 23, 02:21 27.59024° -82.93152° 30 min 0.01 0.00
44°
2018 May 23, 01:51 27.59022° -82.93154° 30 min 0.01 0.01
195°
2018 May 23, 01:21 27.59030° -82.93152° 30 min 0.01 0.00
2018 May 23, 00:51 27.59030° -82.93152° 30 min 0.01 0.00
230°
2018 May 23, 00:21 27.59031° -82.93150° 30 min 0.01 0.01
224°
2018 May 22, 23:51 27.59035° -82.93146° 30 min 0.01 0.00
241°
2018 May 22, 23:21 27.59036° -82.93143° 30 min 0.01 0.01
243°
2018 May 22, 22:51 27.59038° -82.93139° 30 min 0.01 0.00
2018 May 22, 22:21 27.59037° -82.93139° 30 min 0.01 0.00
2018 May 22, 21:51 27.59037° -82.93139° 30 min 0.01 0.00
254°
2018 May 22, 21:21 27.59038° -82.93135° 30 min 0.01 0.00
222°
2018 May 22, 20:51 27.59040° -82.93133° 30 min 0.01 0.00
270°
2018 May 22, 20:21 27.59040° -82.93128° 30 min 0.01 0.00
61°
2018 May 22, 19:51 27.59039° -82.93130° 30 min 0.01 0.00
180°
2018 May 22, 19:21 27.59040° -82.93130° 30 min 0.01 0.01
103°
2018 May 22, 18:51 27.59041° -82.93135° 30 min 0.01 0.00
316°
2018 May 22, 18:21 27.59039° -82.93133° 30 min 0.01 0.00
90°
2018 May 22, 17:51 27.59039° -82.93135° 30 min 0.01 0.00
71°
2018 May 22, 17:21 27.59038° -82.93139° 30 min 0.01 0.00
65°
2018 May 22, 16:51 27.59037° -82.93141° 30 min 0.01 0.00
90°
2018 May 22, 16:21 27.59037° -82.93143° 30 min 0.01 0.00
270°
2018 May 22, 15:51 27.59037° -82.93141° 30 min 0.01 0.01
74°
2018 May 22, 15:21 27.59036° -82.93146° 30 min 0.01 0.00
2018 May 22, 14:51 27.59033° -82.93146° 30 min 0.01 0.00
119°
2018 May 22, 14:21 27.59034° -82.93148° 30 min 0.01 0.00
2018 May 22, 13:51 27.59034° -82.93148° 30 min 0.01 0.00
245°
2018 May 22, 13:21 27.59035° -82.93146° 30 min 0.01 0.01
241°
2018 May 22, 12:51 27.59037° -82.93141° 30 min 0.01 0.00
270°
2018 May 22, 12:21 27.59037° -82.93139° 30 min 0.01 0.00
61°
2018 May 22, 11:51 27.59036° -82.93141° 30 min 0.01 0.00
2018 May 22, 11:21 27.59036° -82.93141° 30 min 0.01 0.01
231°
2018 May 22, 10:51 27.59040° -82.93135° 30 min 0.01 0.00
2018 May 22, 10:21 27.59038° -82.93135° 30 min 0.01 0.00
270°
2018 May 22, 09:51 27.59038° -82.93133° 30 min 0.01 0.00
180°
2018 May 22, 09:21 27.59040° -82.93133° 30 min 0.01 0.00
270°
2018 May 22, 08:51 27.59040° -82.93128° 30 min 0.01 0.00
90°
2018 May 22, 08:21 27.59040° -82.93133° 30 min 0.01 0.00
90°
2018 May 22, 07:51 27.59040° -82.93135° 30 min 0.01 0.00
180°
2018 May 22, 07:21 27.59041° -82.93135° 30 min 0.01 0.00
32°
2018 May 22, 06:51 27.59038° -82.93137° 30 min 0.01 0.00
149°
2018 May 22, 06:21 27.59040° -82.93139° 30 min 0.01 0.00
2018 May 22, 05:51 27.59039° -82.93139° 30 min 0.01 0.00
61°
2018 May 22, 05:21 27.59038° -82.93141° 30 min 0.01 0.01
63°
2018 May 22, 04:51 27.59036° -82.93146° 30 min 0.01 0.00
180°
2018 May 22, 04:21 27.59037° -82.93146° 30 min 0.01 0.00
61°
2018 May 22, 03:51 27.59036° -82.93148° 30 min 0.01 0.00
32°
2018 May 22, 03:21 27.59033° -82.93150° 30 min 0.01 0.00
23°
2018 May 22, 02:51 27.59030° -82.93152° 30 min 0.01 0.00
270°
2018 May 22, 02:21 27.59030° -82.93150° 30 min 0.01 0.00
130°
2018 May 22, 01:51 27.59031° -82.93152° 30 min 0.01 0.00
213°
2018 May 22, 01:21 27.59033° -82.93150° 30 min 0.01 0.00
2018 May 22, 00:51 27.59032° -82.93150° 30 min 0.01 0.00
2018 May 22, 00:21 27.59031° -82.93150° 30 min 0.01 0.00
180°
2018 May 21, 23:51 27.59032° -82.93150° 30 min 0.01 0.00
180°
2018 May 21, 23:21 27.59033° -82.93150° 30 min 0.01 0.01
254°
2018 May 21, 22:51 27.59034° -82.93146° 30 min 0.01 0.00
224°
2018 May 21, 22:21 27.59036° -82.93143° 30 min 0.01 0.01
254°
2018 May 21, 21:51 27.59037° -82.93139° 30 min 0.01 0.00
254°
2018 May 21, 21:21 27.59038° -82.93135° 30 min 0.01 0.00
90°
2018 May 21, 20:51 27.59038° -82.93137° 30 min 0.01 0.00
180°
2018 May 21, 20:21 27.59040° -82.93137° 30 min 0.01 0.00
2018 May 21, 19:51 27.59039° -82.93137° 30 min 0.01 0.00
241°
2018 May 21, 19:21 27.59040° -82.93135° 30 min 0.01 0.00
270°
2018 May 21, 18:51 27.59040° -82.93133° 30 min 0.01 0.00
2018 May 21, 18:21 27.59040° -82.93133° 30 min 0.01 0.00
270°
2018 May 21, 17:51 27.59040° -82.93130° 30 min 0.01 0.00
90°
2018 May 21, 17:21 27.59040° -82.93133° 30 min 0.01 0.01
74°
2018 May 21, 16:51 27.59039° -82.93137° 30 min 0.01 0.00
90°
2018 May 21, 16:21 27.59039° -82.93139° 30 min 0.01 0.00
2018 May 21, 15:51 27.59038° -82.93139° 30 min 0.01 0.01
63°
2018 May 21, 15:21 27.59036° -82.93143° 30 min 0.01 0.00
2018 May 21, 14:51 27.59034° -82.93143° 30 min 0.01 0.00
61°
2018 May 21, 14:21 27.59033° -82.93146° 30 min 0.01 0.00
90°
2018 May 21, 13:51 27.59033° -82.93148° 30 min 0.01 0.00
2018 May 21, 13:21 27.59032° -82.93148° 30 min 0.01 0.01
254°
2018 May 21, 12:51 27.59033° -82.93143° 30 min 0.01 0.01
62°
2018 May 21, 12:21 27.59030° -82.93150° 30 min 0.01 0.00
2018 May 21, 11:51 27.59026° -82.93150° 30 min 0.01 0.01
223°
2018 May 21, 11:21 27.59033° -82.93143° 30 min 0.01 0.01
243°
2018 May 21, 10:51 27.59035° -82.93139° 30 min 0.01 0.01
258°
2018 May 21, 10:21 27.59036° -82.93133° 30 min 0.00 0.00
241°
2018 May 21, 09:51 27.59037° -82.93130° 30 min 0.00 0.00
245°
2018 May 21, 09:21 27.59038° -82.93128° 30 min 0.00 0.00
180°
2018 May 21, 08:51 27.59039° -82.93128° 30 min 0.01 0.00
230°
2018 May 21, 08:21 27.59040° -82.93127° 30 min 0.01 0.00
90°
2018 May 21, 07:51 27.59040° -82.93130° 30 min 0.01 0.00
90°
2018 May 21, 07:21 27.59040° -82.93133° 30 min 0.01 0.01
243°
2018 May 21, 06:51 27.59043° -82.93128° 30 min 0.01 0.01
74°
2018 May 21, 06:21 27.59041° -82.93133° 30 min 0.01 0.00
2018 May 21, 05:51 27.59040° -82.93133° 30 min 0.01 0.00
61°
2018 May 21, 05:21 27.59039° -82.93135° 30 min 0.01 0.00
119°
2018 May 21, 04:51 27.59040° -82.93137° 30 min 0.01 0.01
59°
2018 May 21, 04:21 27.59037° -82.93143° 30 min 0.01 0.01
74°
2018 May 21, 03:51 27.59036° -82.93148° 30 min 0.01 0.01
21°
2018 May 21, 03:21 27.59031° -82.93150° 30 min 0.01 0.00
2018 May 21, 02:51 27.59031° -82.93150° 30 min 0.01 0.00
50°
2018 May 21, 02:21 27.59030° -82.93152° 30 min 0.01 0.00
270°
2018 May 21, 01:51 27.59030° -82.93150° 30 min 0.01 0.00
90°
2018 May 21, 01:21 27.59030° -82.93152° 30 min 0.01 0.00
44°
2018 May 21, 00:51 27.59027° -82.93154° 30 min 0.01 0.01
2018 May 21, 00:21 27.59023° -82.93154° 30 min 0.01 0.00
214°
2018 May 20, 23:51 27.59026° -82.93152° 30 min 0.01 0.00
180°
2018 May 20, 23:21 27.59029° -82.93152° 30 min 0.01 0.01
180°
2018 May 20, 22:51 27.59034° -82.93152° 30 min 0.01 0.01
239°
2018 May 20, 22:21 27.59037° -82.93146° 30 min 0.01 0.01
281°
2018 May 20, 21:51 27.59036° -82.93139° 30 min 0.01 0.00
310°
2018 May 20, 21:21 27.59035° -82.93137° 30 min 0.01 0.00
2018 May 20, 20:51 27.59035° -82.93137° 30 min 0.01 0.01
241°
2018 May 20, 20:21 27.59037° -82.93133° 30 min 0.00 0.00
245°
2018 May 20, 19:51 27.59038° -82.93130° 30 min 0.00 0.00
119°
2018 May 20, 19:21 27.59039° -82.93133° 30 min 0.01 0.01
258°
2018 May 20, 18:51 27.59040° -82.93127° 30 min 0.01 0.00
31°
2018 May 20, 18:21 27.59038° -82.93128° 30 min 0.00 0.00
90°
2018 May 20, 17:51 27.59038° -82.93133° 30 min 0.01 0.01
106°
2018 May 20, 17:21 27.59039° -82.93137° 30 min 0.01 0.00
299°
2018 May 20, 16:51 27.59038° -82.93135° 30 min 0.01 0.00
90°
2018 May 20, 16:21 27.59038° -82.93137° 30 min 0.01 0.00
55°
2018 May 20, 15:51 27.59037° -82.93139° 30 min 0.01 0.01
62°
2018 May 20, 15:21 27.59034° -82.93146° 30 min 0.01 0.00
2018 May 20, 14:51 27.59031° -82.93146° 30 min 0.01 0.01
51°
2018 May 20, 14:21 27.59027° -82.93150° 30 min 0.01 0.00
23°
2018 May 20, 13:51 27.59024° -82.93152° 30 min 0.01 0.01
32°
2018 May 20, 13:21 27.59018° -82.93156° 30 min 0.02 0.00
2018 May 20, 12:51 27.59015° -82.93156° 30 min 0.02 0.00
295°
2018 May 20, 12:21 27.59014° -82.93154° 30 min 0.02 0.00
2018 May 20, 11:51 27.59011° -82.93154° 30 min 0.02 0.00
2018 May 20, 11:21 27.59011° -82.93154° 30 min 0.02 0.01
196°